עמוד ראשי
METAR-TAF:

METAR-TAF

שדות תעופה :

Ketchikan, אלסקה, ארצות הברית

קו רוחב: 55-21-20N, קו אורך: 131-42-49W, גובה: 27מטר

תצפית מזג אוויר נוכחית

הדו"ח נערך לפני 1 שעות ו 14דקות, בשעה 09:53 UTC
טמפרטורת
לחץ 1016 hPa

METAR: PAKT 240953Z AUTO A3001 RMK AO2 SLPNO PWINO FZRANO TSNO $

זמן: 03:07 (11:07 UTC)

תחזית

הדו"ח נערך לפני 5 שעות ו 28דקות, בשעה 05:39 UTC
תחזית בתוקף מ 24 ב 06 UTC עד 25 ב 06 UTC
רוח 11קשר מכיוון מזרח/דרום-מזרח
ראות: 10קילומטר
עננים בינוניים בגובה 5000רגל
מ 24 ב 1000UTC
רוח 5קשר מכיוון דרום-מזרח
ראות: 9.7קילומטר
מעט עננים בגובה 400רגל
עננים בינוניים בגובה 1200רגל
מעונן בגובה 2000רגל
אד
מ 24 ב 1900UTC
רוח 11קשר מכיוון דרום-מזרח
ראות: 10קילומטר
עננים בינוניים בגובה 3500רגל
מעונן בגובה 7000רגל

TAF: PAKT 240539Z 2406/2506 12011KT P6SM BKN050 FM241000 14005KT 6SM BR FEW004 BKN012 OVC020 FM241900 14011KT P6SM BKN035 OVC070 AMD LTD TO CLD VIS AND WIND 2406/2415

תצפיות ותחזיות מזג אוויר לגבי יותר מ- 4,000 שדות תעופה ברחבי העולם. דוחות METAR ו- TAF.

התחנות הזמינות מסומנות בנקודות צהובות ואדומות על גבי המפה.

העבר את העכבר לנקודה הצבעונית על מנת לראות את שם התחנה.

לאחר מכן, לחץ כדי לראות את תוכן ואת תחזיות מזג האוויר.

כדי לשנות את המפה: לחץ על הכפתורים הירוקים עם הפלוס השחור כדי להתקרב; על הכפתור הירוק עם המקף כדי להתרחק; או בחיצים הירוקים למפות סמוכות.


METAR-TAF: